Time;durP1;ratioP1;P1;durP2;ratioP2;P2;SDS_P1;SDS_P2;PMS_P1;PMS_P2;Temp;Humidity;BMP_temperature;BMP_pressure;BME280_temperature;BME280_humidity;BME280_pressure;Samples;Min_cycle;Max_cycle;Signal;HPM_P1;HPM_P2
2022/04/22 00:01:21;;;;;;;8.38;5.38;;;12.20;90.60;;;;;;5005360;28;20042;-72
2022/04/22 00:03:47;;;;;;;9.38;5.45;;;12.10;90.50;;;;;;5008436;28;20439;-72
2022/04/22 00:06:13;;;;;;;11.73;5.88;;;11.90;90.80;;;;;;5008895;28;20451;-72
2022/04/22 00:08:39;;;;;;;9.55;5.55;;;11.90;90.80;;;;;;4998985;28;20136;-71
2022/04/22 00:13:50;;;;;;;9.52;5.63;;;11.80;91.40;;;;;;5006607;28;20057;-72
2022/04/22 00:16:17;;;;;;;9.52;6.43;;;11.70;92.30;;;;;;5010962;28;20088;-72
2022/04/22 00:18:43;;;;;;;9.32;5.80;;;11.50;92.90;;;;;;5009351;28;20060;-72
2022/04/22 00:21:09;;;;;;;11.30;6.35;;;11.40;93.60;;;;;;5004802;28;20076;-72
2022/04/22 00:23:35;;;;;;;10.98;6.00;;;11.30;94.00;;;;;;5006300;28;20061;-72
2022/04/22 00:26:01;;;;;;;9.45;6.50;;;11.30;94.80;;;;;;5006265;28;20037;-72
2022/04/22 00:28:27;;;;;;;10.38;5.70;;;11.30;95.30;;;;;;5007876;28;20030;-72
2022/04/22 00:30:52;;;;;;;12.10;6.85;;;11.30;96.20;;;;;;5005160;28;20476;-72
2022/04/22 00:33:18;;;;;;;9.98;5.88;;;11.30;96.50;;;;;;5006260;28;20097;-72
2022/04/22 00:35:44;;;;;;;10.77;6.32;;;11.30;96.00;;;;;;5003311;28;20095;-72
2022/04/22 00:38:10;;;;;;;10.50;6.22;;;11.50;96.30;;;;;;5009384;28;20041;-72
2022/04/22 00:40:37;;;;;;;8.73;6.20;;;11.40;97.10;;;;;;5007129;28;20030;-72
2022/04/22 00:43:17;;;;;;;9.43;6.00;;;11.30;97.40;;;;;;5008283;28;20042;-72
2022/04/22 00:45:43;;;;;;;8.13;5.80;;;11.30;96.90;;;;;;5005467;28;20200;-72
2022/04/22 00:48:08;;;;;;;9.60;5.28;;;11.30;95.90;;;;;;5010631;28;20033;-72
2022/04/22 00:50:34;;;;;;;10.00;6.00;;;11.50;95.70;;;;;;5004856;28;20036;-72
2022/04/22 00:53:00;;;;;;;11.18;5.97;;;11.60;95.80;;;;;;5010553;28;20029;-72
2022/04/22 00:55:28;;;;;;;10.50;6.25;;;11.50;94.80;;;;;;5006582;28;20124;-72
2022/04/22 00:57:55;;;;;;;10.57;6.05;;;11.60;95.10;;;;;;5007752;28;20117;-71
2022/04/22 01:00:20;;;;;;;10.38;5.63;;;11.60;95.00;;;;;;5006376;28;20038;-72
2022/04/22 01:02:47;;;;;;;8.98;5.60;;;11.60;94.90;;;;;;5004417;28;20052;-72
2022/04/22 01:10:41;;;;;;;9.20;6.82;;;11.60;94.80;;;;;;5008003;28;20033;-72
2022/04/22 01:13:07;;;;;;;14.50;6.32;;;11.50;94.70;;;;;;5014083;28;20078;-72
2022/04/22 01:15:34;;;;;;;8.93;4.95;;;11.60;94.30;;;;;;5009095;28;20041;-72
2022/04/22 01:18:00;;;;;;;8.57;5.53;;;11.70;94.10;;;;;;5009767;28;20128;-71
2022/04/22 01:20:26;;;;;;;9.02;5.82;;;11.70;93.90;;;;;;5005121;28;20117;-72
2022/04/22 01:22:52;;;;;;;13.18;5.43;;;11.60;93.90;;;;;;5013437;28;20041;-72
2022/04/22 01:25:18;;;;;;;9.75;5.55;;;11.60;94.10;;;;;;5001883;28;20035;-72
2022/04/22 01:27:47;;;;;;;7.90;5.45;;;11.60;94.50;;;;;;5013401;28;20041;-72
2022/04/22 01:30:13;;;;;;;8.27;5.50;;;11.60;94.90;;;;;;5012740;28;20029;-72
2022/04/22 01:32:39;;;;;;;8.80;6.38;;;11.60;94.80;;;;;;5009176;28;20034;-72
2022/04/22 01:35:05;;;;;;;11.15;5.63;;;11.60;95.10;;;;;;5012328;28;20052;-72
2022/04/22 01:37:32;;;;;;;10.90;5.68;;;11.60;95.40;;;;;;5003206;28;20096;-72
2022/04/22 01:39:58;;;;;;;9.75;5.70;;;11.50;95.80;;;;;;5011208;28;20052;-72
2022/04/22 01:42:23;;;;;;;7.90;5.45;;;11.50;96.20;;;;;;5009689;28;20057;-72
2022/04/22 01:44:49;;;;;;;8.05;5.15;;;11.50;95.60;;;;;;5010301;28;20420;-72
2022/04/22 01:47:16;;;;;;;9.48;5.38;;;11.50;95.60;;;;;;5013260;28;20033;-72
2022/04/22 01:49:41;;;;;;;11.63;5.95;;;11.50;95.20;;;;;;5008701;28;20132;-72
2022/04/22 01:52:07;;;;;;;10.48;5.93;;;11.60;94.70;;;;;;5001438;28;20452;-72
2022/04/22 01:54:33;;;;;;;9.57;6.30;;;11.60;94.80;;;;;;5013310;28;20038;-72
2022/04/22 01:56:58;;;;;;;9.35;5.43;;;11.60;94.60;;;;;;5007398;28;20030;-72
2022/04/22 01:59:24;;;;;;;12.43;6.18;;;11.60;94.30;;;;;;5010897;28;20030;-72
2022/04/22 02:01:50;;;;;;;9.90;5.30;;;11.60;94.80;;;;;;5006437;28;20086;-72
2022/04/22 02:04:15;;;;;;;8.23;4.70;;;11.60;94.80;;;;;;5013290;28;20048;-72
2022/04/22 02:06:41;;;;;;;8.82;5.90;;;11.60;95.20;;;;;;4999858;28;20057;-72
2022/04/22 02:09:07;;;;;;;7.13;4.97;;;11.60;95.30;;;;;;5002868;28;20068;-72
2022/04/22 02:11:32;;;;;;;9.95;5.45;;;11.60;95.20;;;;;;5009039;28;20026;-71
2022/04/22 02:13:58;;;;;;;8.82;4.90;;;11.50;95.70;;;;;;5007536;28;20030;-72
2022/04/22 02:16:24;;;;;;;9.00;5.63;;;11.50;95.80;;;;;;5013509;28;20038;-72
2022/04/22 02:18:49;;;;;;;9.77;6.00;;;11.40;96.20;;;;;;5011410;28;20530;-72
2022/04/22 02:21:15;;;;;;;8.10;5.75;;;11.30;96.30;;;;;;5011721;28;20037;-72
2022/04/22 02:23:41;;;;;;;10.40;5.80;;;11.20;97.20;;;;;;5008625;28;20041;-73
2022/04/22 02:26:07;;;;;;;10.02;5.65;;;11.10;97.60;;;;;;5007758;28;20038;-72
2022/04/22 02:28:34;;;;;;;8.68;4.70;;;11.10;97.20;;;;;;5011989;28;20111;-72
2022/04/22 02:31:10;;;;;;;11.05;6.53;;;11.10;97.50;;;;;;5008544;28;20048;-72
2022/04/22 02:33:38;;;;;;;8.90;5.88;;;11.10;97.70;;;;;;5006006;28;20029;-72
2022/04/22 02:36:04;;;;;;;8.98;5.72;;;11.00;98.00;;;;;;5005348;28;20054;-72
2022/04/22 02:38:31;;;;;;;11.90;6.80;;;11.10;98.30;;;;;;5013014;28;20048;-72
2022/04/22 02:46:28;;;;;;;9.68;5.53;;;11.50;94.60;;;;;;5008849;28;20139;-72
2022/04/22 02:48:58;;;;;;;10.82;6.20;;;11.40;96.20;;;;;;5006054;28;20357;-72
2022/04/22 02:51:25;;;;;;;8.73;5.78;;;11.30;95.70;;;;;;5009422;28;20045;-72
2022/04/22 02:53:52;;;;;;;11.55;6.40;;;11.40;95.90;;;;;;5010829;28;20381;-72
2022/04/22 02:56:19;;;;;;;10.60;5.32;;;11.30;96.40;;;;;;5012282;28;20107;-72
2022/04/22 02:58:45;;;;;;;9.20;5.90;;;11.30;95.00;;;;;;5007735;28;20041;-72
2022/04/22 03:01:11;;;;;;;9.23;5.80;;;11.10;96.50;;;;;;5008229;28;20030;-71
2022/04/22 03:03:37;;;;;;;10.15;5.85;;;11.20;96.60;;;;;;4998685;28;20056;-70
2022/04/22 03:06:03;;;;;;;11.23;6.40;;;11.30;96.40;;;;;;4998319;28;20101;-71
2022/04/22 03:08:32;;;;;;;8.32;6.05;;;11.30;95.90;;;;;;5001647;28;20057;-70
2022/04/22 03:10:58;;;;;;;9.63;5.63;;;11.20;96.60;;;;;;5000477;28;20033;-71
2022/04/22 03:13:23;;;;;;;9.25;6.10;;;11.10;96.70;;;;;;5008285;28;20046;-70
2022/04/22 03:15:49;;;;;;;9.30;5.60;;;11.00;96.70;;;;;;5006463;28;20060;-70
2022/04/22 03:18:15;;;;;;;8.73;5.85;;;11.00;96.90;;;;;;4985995;28;20038;-70
2022/04/22 03:20:41;;;;;;;11.70;6.88;;;11.10;96.60;;;;;;4982774;28;20042;-71
2022/04/22 03:23:06;;;;;;;11.25;6.60;;;11.00;97.00;;;;;;4978894;28;20416;-71
2022/04/22 03:25:32;;;;;;;11.32;6.35;;;11.00;96.90;;;;;;4985905;28;20487;-70
2022/04/22 03:27:58;;;;;;;10.05;7.18;;;10.90;96.90;;;;;;4993766;28;20028;-71
2022/04/22 03:30:24;;;;;;;9.60;6.82;;;10.90;96.90;;;;;;4984938;28;20113;-71
2022/04/22 03:32:50;;;;;;;8.05;5.53;;;10.90;97.10;;;;;;4989594;28;20027;-70
2022/04/22 03:35:16;;;;;;;9.43;6.13;;;10.80;97.30;;;;;;5001976;28;20065;-70
2022/04/22 03:37:42;;;;;;;13.15;6.78;;;10.80;97.40;;;;;;5006261;28;20069;-70
2022/04/22 03:40:10;;;;;;;9.38;6.55;;;10.80;97.60;;;;;;4999033;28;20049;-70
2022/04/22 03:42:36;;;;;;;9.30;6.47;;;10.70;97.60;;;;;;5004700;28;20034;-70
2022/04/22 03:45:05;;;;;;;9.50;6.13;;;10.70;97.80;;;;;;4998603;28;20641;-70
2022/04/22 03:47:31;;;;;;;9.52;6.65;;;10.70;97.70;;;;;;5002627;28;20042;-70
2022/04/22 03:49:57;;;;;;;9.55;6.47;;;10.70;97.80;;;;;;5003826;28;20108;-70
2022/04/22 03:52:22;;;;;;;10.20;6.55;;;10.70;98.00;;;;;;5000390;28;20511;-70
2022/04/22 03:54:48;;;;;;;10.63;6.47;;;10.60;98.10;;;;;;5000796;28;20029;-70
2022/04/22 03:59:58;;;;;;;10.00;5.75;;;10.60;98.20;;;;;;5005929;28;20569;-70
2022/04/22 04:02:24;;;;;;;10.75;7.57;;;10.60;98.20;;;;;;5001983;28;20136;-70
2022/04/22 04:04:50;;;;;;;11.02;6.75;;;10.60;98.40;;;;;;4995148;28;20038;-70
2022/04/22 04:07:16;;;;;;;10.02;6.65;;;10.60;98.60;;;;;;4998047;28;20058;-70
2022/04/22 04:17:55;;;;;;;11.68;8.15;;;10.50;98.70;;;;;;5006040;28;20587;-70
2022/04/22 04:23:17;;;;;;;12.15;7.95;;;10.40;99.50;;;;;;5002709;28;20623;-70
2022/04/22 04:25:44;;;;;;;12.52;7.80;;;10.30;99.60;;;;;;5000776;28;20029;-70
2022/04/22 04:28:11;;;;;;;10.45;7.07;;;10.30;99.60;;;;;;5006258;28;20042;-70
2022/04/22 04:30:40;;;;;;;11.20;7.80;;;10.20;99.80;;;;;;5002955;28;20036;-70
2022/04/22 04:33:07;;;;;;;10.05;7.22;;;10.30;99.90;;;;;;5001565;28;20030;-70
2022/04/22 04:35:38;;;;;;;12.70;8.23;;;10.30;99.90;;;;;;5001124;28;20068;-70
2022/04/22 04:38:06;;;;;;;10.70;7.28;;;10.30;99.90;;;;;;5001057;28;20045;-70
2022/04/22 04:40:33;;;;;;;12.00;6.60;;;10.30;99.90;;;;;;5005979;28;20052;-70
2022/04/22 04:43:02;;;;;;;12.50;6.85;;;10.30;99.90;;;;;;4994212;28;20289;-70
2022/04/22 04:45:28;;;;;;;10.88;6.85;;;10.30;99.90;;;;;;4996260;28;20117;-70
2022/04/22 04:47:53;;;;;;;12.57;7.65;;;10.30;99.90;;;;;;5001886;28;20113;-70
2022/04/22 04:50:19;;;;;;;11.50;7.55;;;10.30;99.90;;;;;;5006254;28;20116;-70
2022/04/22 04:52:45;;;;;;;13.68;7.43;;;10.30;99.90;;;;;;4996585;28;20038;-71
2022/04/22 04:55:15;;;;;;;11.15;7.03;;;10.40;99.90;;;;;;5000874;28;20030;-70
2022/04/22 04:57:44;;;;;;;11.95;6.07;;;10.40;99.80;;;;;;5003066;28;20061;-70
2022/04/22 05:00:10;;;;;;;10.10;7.32;;;10.50;99.90;;;;;;4999483;28;20192;-70
2022/04/22 05:02:37;;;;;;;11.15;7.55;;;10.50;99.90;;;;;;5002690;28;20128;-70
2022/04/22 05:05:05;;;;;;;8.45;6.25;;;10.40;99.90;;;;;;4992510;28;20121;-70
2022/04/22 05:07:34;;;;;;;10.35;6.88;;;10.40;99.90;;;;;;5002678;28;20046;-70
2022/04/22 05:10:00;;;;;;;10.30;6.70;;;10.40;99.90;;;;;;5004067;28;20092;-70
2022/04/22 05:12:26;;;;;;;11.35;7.25;;;10.30;99.90;;;;;;5000105;28;20038;-70
2022/04/22 05:14:52;;;;;;;11.85;7.10;;;10.30;99.90;;;;;;4997090;28;20041;-71
2022/04/22 05:17:18;;;;;;;10.60;6.93;;;10.40;99.90;;;;;;4995772;28;20073;-71
2022/04/22 05:19:43;;;;;;;10.98;6.63;;;10.30;99.90;;;;;;5005658;28;20074;-71
2022/04/22 05:22:09;;;;;;;9.98;7.05;;;10.30;99.90;;;;;;4995193;28;20038;-71
2022/04/22 05:24:35;;;;;;;13.82;7.13;;;10.30;99.90;;;;;;5003122;28;20038;-71
2022/04/22 05:27:01;;;;;;;9.88;6.82;;;10.30;99.90;;;;;;5004313;28;20494;-71
2022/04/22 05:34:55;;;;;;;12.73;7.20;;;10.40;99.90;;;;;;5001518;28;20052;-72
2022/04/22 05:37:21;;;;;;;10.98;7.50;;;10.40;99.90;;;;;;4996486;28;20137;-72
2022/04/22 05:39:47;;;;;;;9.48;6.38;;;10.50;99.90;;;;;;4994168;28;20065;-73
2022/04/22 05:42:12;;;;;;;7.43;5.38;;;10.60;99.90;;;;;;5001565;28;20041;-74
2022/04/22 05:44:38;;;;;;;10.23;6.15;;;10.70;99.90;;;;;;5003777;28;20033;-72
2022/04/22 05:47:06;;;;;;;11.25;6.72;;;10.70;99.90;;;;;;4989881;28;20723;-72
2022/04/22 05:49:32;;;;;;;14.38;5.93;;;10.70;99.90;;;;;;4999506;28;20123;-72
2022/04/22 05:51:58;;;;;;;12.32;7.38;;;10.70;99.90;;;;;;5005171;28;20117;-72
2022/04/22 05:54:23;;;;;;;9.80;7.25;;;10.70;99.90;;;;;;5000189;28;20572;-72
2022/04/22 05:56:49;;;;;;;10.38;6.22;;;10.70;99.90;;;;;;5005640;28;20038;-72
2022/04/22 05:59:15;;;;;;;9.63;5.90;;;10.70;99.90;;;;;;5004129;28;20188;-72
2022/04/22 06:01:40;;;;;;;10.90;6.63;;;10.80;99.90;;;;;;5001931;28;20038;-72
2022/04/22 06:04:06;;;;;;;8.80;5.95;;;10.80;99.90;;;;;;4992346;28;20033;-72
2022/04/22 06:06:32;;;;;;;8.90;6.22;;;10.80;99.90;;;;;;5001841;28;20053;-72
2022/04/22 06:11:42;;;;;;;9.55;6.78;;;10.90;99.90;;;;;;4981532;28;20056;-72
2022/04/22 06:14:09;;;;;;;8.77;5.63;;;10.80;99.70;;;;;;4988203;28;20213;-72
2022/04/22 06:16:35;;;;;;;9.32;5.82;;;10.80;99.80;;;;;;4993197;28;20092;-72
2022/04/22 06:19:01;;;;;;;10.95;6.25;;;10.90;99.70;;;;;;4983915;28;20034;-72
2022/04/22 06:21:29;;;;;;;9.95;6.22;;;10.90;99.90;;;;;;4979091;28;20110;-72
2022/04/22 06:23:54;;;;;;;11.13;6.88;;;10.90;99.90;;;;;;4984022;28;20080;-72
2022/04/22 06:26:20;;;;;;;12.77;7.28;;;10.90;99.90;;;;;;4980778;28;20149;-73
2022/04/22 06:28:46;;;;;;;9.85;6.70;;;10.90;99.90;;;;;;4981546;28;20026;-72
2022/04/22 06:31:12;;;;;;;11.20;6.78;;;10.90;99.90;;;;;;4984727;28;20061;-72
2022/04/22 06:33:38;;;;;;;8.88;5.68;;;10.80;99.90;;;;;;4986630;28;20121;-72
2022/04/22 06:36:07;;;;;;;12.88;6.78;;;10.90;99.90;;;;;;4982290;28;20026;-72
2022/04/22 06:38:34;;;;;;;10.25;6.63;;;10.90;99.90;;;;;;4981322;28;20041;-72
2022/04/22 06:46:29;;;;;;;11.95;7.95;;;10.80;99.90;;;;;;5001640;28;20044;-72
2022/04/22 06:48:54;;;;;;;9.07;6.20;;;10.80;99.90;;;;;;4997240;28;20029;-72
2022/04/22 06:51:22;;;;;;;11.85;7.38;;;10.80;99.90;;;;;;4983614;28;20056;-72
2022/04/22 06:53:50;;;;;;;11.45;7.65;;;10.80;99.90;;;;;;4987182;28;20034;-72
2022/04/22 06:56:20;;;;;;;10.30;6.72;;;10.80;99.90;;;;;;4985760;28;20038;-72
2022/04/22 06:58:46;;;;;;;10.45;6.78;;;10.90;99.90;;;;;;4987993;28;20052;-72
2022/04/22 07:01:12;;;;;;;10.13;6.28;;;10.80;99.90;;;;;;4984322;28;20125;-72
2022/04/22 07:03:38;;;;;;;10.20;7.57;;;10.80;99.90;;;;;;4985859;28;20053;-72
2022/04/22 07:06:04;;;;;;;9.55;6.25;;;10.80;99.90;;;;;;4983684;28;20054;-72
2022/04/22 07:08:30;;;;;;;11.80;7.72;;;10.90;99.90;;;;;;4986166;28;20022;-72
2022/04/22 07:11:00;;;;;;;9.27;5.88;;;10.90;99.90;;;;;;4992733;28;20052;-72
2022/04/22 07:13:26;;;;;;;10.60;6.40;;;11.00;99.90;;;;;;5004411;28;21013;-72
2022/04/22 07:15:55;;;;;;;11.32;7.38;;;11.00;99.90;;;;;;5002426;28;20038;-72
2022/04/22 07:18:21;;;;;;;9.75;6.05;;;11.10;99.90;;;;;;5004069;28;20072;-71
2022/04/22 07:20:47;;;;;;;10.23;7.15;;;11.00;99.90;;;;;;4999884;28;20049;-71
2022/04/22 07:23:14;;;;;;;9.80;6.40;;;11.10;99.90;;;;;;5002828;28;20033;-72
2022/04/22 07:25:43;;;;;;;9.85;7.05;;;11.10;99.90;;;;;;5003456;28;20038;-72
2022/04/22 07:28:09;;;;;;;10.18;6.47;;;11.20;99.90;;;;;;5003730;28;20034;-72
2022/04/22 07:30:37;;;;;;;13.15;6.85;;;11.10;99.90;;;;;;5001066;28;20591;-72
2022/04/22 07:33:03;;;;;;;11.55;7.10;;;11.20;99.90;;;;;;4994989;28;20076;-72
2022/04/22 07:35:29;;;;;;;8.70;5.88;;;11.10;99.90;;;;;;4999723;28;20038;-72
2022/04/22 07:37:55;;;;;;;7.93;5.03;;;11.20;99.90;;;;;;5003787;28;20084;-72
2022/04/22 07:40:21;;;;;;;9.98;6.53;;;11.20;99.90;;;;;;4995796;28;20049;-72
2022/04/22 07:48:23;;;;;;;10.70;6.75;;;11.50;99.90;;;;;;4997443;28;20073;-72
2022/04/22 07:50:50;;;;;;;12.38;7.03;;;11.60;99.90;;;;;;5000422;28;20033;-72
2022/04/22 07:53:17;;;;;;;12.88;8.02;;;11.70;99.90;;;;;;5002732;28;20037;-72
2022/04/22 07:55:43;;;;;;;13.40;9.70;;;11.80;99.90;;;;;;4999863;28;20174;-72
2022/04/22 07:58:13;;;;;;;13.85;8.80;;;11.90;99.90;;;;;;4984031;28;20034;-72
2022/04/22 08:00:42;;;;;;;15.18;9.25;;;11.90;99.90;;;;;;4980832;28;20026;-72
2022/04/22 08:03:09;;;;;;;17.63;8.88;;;11.90;99.90;;;;;;4996114;28;20544;-72
2022/04/22 08:05:39;;;;;;;24.65;9.77;;;12.00;99.90;;;;;;4978034;28;20022;-72
2022/04/22 08:08:06;;;;;;;17.75;9.80;;;12.10;99.90;;;;;;4983188;28;20105;-72
2022/04/22 08:10:33;;;;;;;11.20;9.07;;;12.20;99.90;;;;;;4985073;28;20595;-72
2022/04/22 08:12:59;;;;;;;11.65;8.30;;;12.20;99.90;;;;;;4991647;28;20030;-72
2022/04/22 08:15:25;;;;;;;14.60;8.77;;;12.20;99.90;;;;;;4978177;28;20034;-72
2022/04/22 08:17:50;;;;;;;13.75;8.88;;;12.20;99.90;;;;;;5002201;28;20034;-72
2022/04/22 08:20:17;;;;;;;15.10;8.90;;;12.10;99.90;;;;;;5003131;28;20094;-72
2022/04/22 08:22:45;;;;;;;13.63;8.32;;;12.10;99.90;;;;;;4999489;28;20040;-72
2022/04/22 08:25:12;;;;;;;11.20;8.20;;;12.10;99.90;;;;;;5003990;28;20046;-72
2022/04/22 08:27:39;;;;;;;13.25;8.00;;;12.20;99.90;;;;;;5003741;28;20527;-71
2022/04/22 08:30:07;;;;;;;11.52;7.53;;;12.10;99.90;;;;;;5004149;28;20022;-72
2022/04/22 08:32:33;;;;;;;12.32;8.25;;;12.20;99.90;;;;;;5005472;28;20053;-72
2022/04/22 08:34:59;;;;;;;11.77;8.73;;;12.30;99.90;;;;;;5005745;28;20036;-72
2022/04/22 08:37:24;;;;;;;12.68;8.52;;;12.30;99.90;;;;;;5004500;28;20069;-72
2022/04/22 08:39:50;;;;;;;11.50;8.43;;;12.50;99.90;;;;;;4992958;28;21249;-72
2022/04/22 08:42:17;;;;;;;14.90;8.23;;;12.50;99.90;;;;;;4979893;28;20050;-72
2022/04/22 08:44:43;;;;;;;14.35;8.45;;;12.60;99.90;;;;;;4990958;28;20036;-72
2022/04/22 08:49:58;;;;;;;10.63;7.63;;;12.60;99.90;;;;;;4982458;28;20038;-72
2022/04/22 08:52:26;;;;;;;19.40;8.43;;;12.80;99.90;;;;;;4986070;28;20042;-72
2022/04/22 08:54:54;;;;;;;14.07;8.13;;;12.90;99.90;;;;;;4984792;28;20972;-72
2022/04/22 08:57:23;;;;;;;13.65;9.25;;;12.90;99.90;;;;;;4983917;28;20034;-72
2022/04/22 08:59:49;;;;;;;13.63;8.68;;;13.10;99.90;;;;;;4995029;28;20439;-72
2022/04/22 09:02:20;;;;;;;11.10;8.13;;;13.10;99.90;;;;;;5000155;28;20100;-72
2022/04/22 09:04:47;;;;;;;13.07;8.35;;;13.20;99.90;;;;;;5005778;28;20034;-72
2022/04/22 09:07:13;;;;;;;12.73;8.75;;;13.20;99.90;;;;;;5004767;28;20042;-72
2022/04/22 09:09:49;;;;;;;14.65;10.52;;;13.10;99.90;;;;;;4995449;28;20026;-72
2022/04/22 09:12:17;;;;;;;12.55;8.13;;;13.30;99.90;;;;;;4991960;28;20034;-73
2022/04/22 09:14:48;;;;;;;13.35;10.73;;;13.40;99.90;;;;;;4991967;28;20026;-73
2022/04/22 09:17:25;;;;;;;13.98;9.05;;;13.60;99.90;;;;;;4998998;28;20038;-73
2022/04/22 09:19:51;;;;;;;12.45;9.00;;;13.50;99.90;;;;;;4992876;28;20046;-73
2022/04/22 09:22:28;;;;;;;14.90;9.13;;;13.50;99.90;;;;;;5004092;28;20052;-72
2022/04/22 09:24:58;;;;;;;16.85;10.20;;;13.60;99.90;;;;;;5009391;28;20030;-73
2022/04/22 09:27:42;;;;;;;13.30;8.50;;;13.60;99.60;;;;;;5009025;28;20034;-72
2022/04/22 09:30:12;;;;;;;15.50;10.60;;;13.80;99.30;;;;;;4996384;28;20054;-73
2022/04/22 09:32:40;;;;;;;13.05;9.00;;;14.00;99.90;;;;;;5007445;28;20081;-73
2022/04/22 09:35:16;;;;;;;16.95;9.18;;;14.00;98.60;;;;;;5007236;28;20144;-73
2022/04/22 09:43:38;;;;;;;14.48;8.30;;;14.00;97.90;;;;;;5009212;28;20072;-72
2022/04/22 09:46:05;;;;;;;12.90;8.90;;;14.00;98.20;;;;;;5007581;28;20034;-73
2022/04/22 09:48:44;;;;;;;12.73;8.00;;;13.90;98.70;;;;;;5001814;28;20492;-72
2022/04/22 09:51:26;;;;;;;13.02;8.80;;;13.90;97.90;;;;;;5006887;28;20064;-73
2022/04/22 09:54:10;;;;;;;24.15;16.15;;;14.00;98.30;;;;;;5006744;28;20122;-73
2022/04/22 09:56:38;;;;;;;17.23;11.48;;;14.30;99.40;;;;;;5004498;28;20140;-72
2022/04/22 09:59:27;;;;;;;10.52;6.95;;;14.30;98.40;;;;;;4998422;28;20069;-73
2022/04/22 10:01:53;;;;;;;14.30;7.80;;;14.30;97.80;;;;;;5000925;28;20038;-73
2022/04/22 10:04:22;;;;;;;16.10;10.52;;;14.50;98.10;;;;;;5007279;28;20497;-73
2022/04/22 10:06:49;;;;;;;12.57;8.95;;;14.60;98.10;;;;;;5006356;28;20107;-71
2022/04/22 10:09:16;;;;;;;13.27;7.50;;;14.50;97.20;;;;;;5007824;28;20437;-71
2022/04/22 10:11:43;;;;;;;8.90;6.63;;;14.60;97.60;;;;;;5008718;28;20041;-72
2022/04/22 10:14:11;;;;;;;10.63;7.15;;;14.60;97.10;;;;;;5008509;28;20037;-71
2022/04/22 10:16:37;;;;;;;11.50;7.97;;;14.50;97.10;;;;;;5006429;28;20083;-71
2022/04/22 10:19:04;;;;;;;11.88;8.73;;;14.50;96.50;;;;;;4997645;28;20041;-71
2022/04/22 10:21:29;;;;;;;14.90;7.90;;;14.70;97.90;;;;;;5005235;28;20046;-72
2022/04/22 10:23:56;;;;;;;13.10;7.63;;;14.70;96.40;;;;;;5008271;28;20092;-71
2022/04/22 10:26:23;;;;;;;11.80;7.55;;;14.60;96.70;;;;;;5008227;28;20037;-71
2022/04/22 10:28:49;;;;;;;11.95;7.63;;;14.70;97.30;;;;;;5006503;28;20075;-71
2022/04/22 10:31:16;;;;;;;13.02;8.02;;;14.80;96.40;;;;;;5006695;28;20092;-71
2022/04/22 10:33:44;;;;;;;15.05;7.93;;;15.00;96.50;;;;;;5008443;28;20043;-71
2022/04/22 10:36:13;;;;;;;11.27;7.82;;;15.00;95.80;;;;;;5008236;28;20580;-72
2022/04/22 10:38:41;;;;;;;12.38;9.07;;;15.00;95.90;;;;;;5000055;28;20495;-71
2022/04/22 10:41:43;;;;;;;12.73;8.57;;;15.10;96.60;;;;;;5006813;28;20041;-71
2022/04/22 10:47:13;;;;;;;10.35;7.78;;;14.80;96.30;;;;;;5008343;28;20053;-71
2022/04/22 10:49:43;;;;;;;13.47;8.33;;;14.90;96.20;;;;;;5003599;28;20026;-71
2022/04/22 10:52:14;;;;;;;10.43;8.13;;;14.90;96.70;;;;;;4984543;28;20065;-71
2022/04/22 10:54:52;;;;;;;9.98;8.15;;;15.10;97.30;;;;;;4987034;28;20041;-72
2022/04/22 10:57:29;;;;;;;10.98;8.00;;;15.00;96.70;;;;;;5002938;28;20120;-71
2022/04/22 11:00:07;;;;;;;13.57;7.53;;;14.80;96.80;;;;;;4998840;28;20030;-71
2022/04/22 11:02:35;;;;;;;10.90;8.45;;;15.00;96.60;;;;;;5007803;28;20057;-71
2022/04/22 11:05:25;;;;;;;12.07;8.35;;;15.00;97.10;;;;;;5001428;28;20392;-71
2022/04/22 11:07:50;;;;;;;12.35;9.40;;;15.00;96.90;;;;;;5006118;28;20042;-71
2022/04/22 11:10:20;;;;;;;13.75;8.10;;;15.10;97.20;;;;;;5007036;28;20589;-71
2022/04/22 11:12:57;;;;;;;12.40;8.05;;;15.10;96.70;;;;;;5003729;28;20037;-72
2022/04/22 11:15:52;;;;;;;12.68;7.55;;;15.10;96.20;;;;;;4998633;28;20575;-71
2022/04/22 11:18:18;;;;;;;11.48;6.95;;;15.20;96.80;;;;;;5007215;28;20144;-72
2022/04/22 11:20:44;;;;;;;11.32;7.72;;;15.20;96.40;;;;;;5006923;28;20030;-72
2022/04/22 11:23:14;;;;;;;13.35;7.85;;;15.50;96.80;;;;;;5007082;28;20034;-71
2022/04/22 11:25:41;;;;;;;10.18;7.50;;;15.40;97.10;;;;;;5002667;28;20066;-71
2022/04/22 11:28:08;;;;;;;13.00;8.13;;;15.50;96.70;;;;;;5007452;28;20466;-72
2022/04/22 11:30:35;;;;;;;12.15;7.00;;;15.50;96.50;;;;;;5005075;28;20029;-71
2022/04/22 11:33:21;;;;;;;9.93;7.35;;;15.70;95.70;;;;;;5007056;28;20037;-71
2022/04/22 11:35:57;;;;;;;12.45;7.32;;;15.60;96.30;;;;;;5005267;28;20065;-71
2022/04/22 11:38:23;;;;;;;12.23;7.55;;;15.60;96.50;;;;;;5007017;28;20034;-71
2022/04/22 11:40:52;;;;;;;11.95;7.90;;;15.60;96.30;;;;;;5006776;28;20068;-71
2022/04/22 11:43:18;;;;;;;9.60;6.47;;;15.50;96.40;;;;;;5001585;28;20049;-71
2022/04/22 11:45:49;;;;;;;10.25;7.10;;;15.80;95.90;;;;;;5003256;28;20358;-71
2022/04/22 11:48:23;;;;;;;10.48;6.10;;;15.80;96.20;;;;;;4996543;28;20496;-71
2022/04/22 11:50:49;;;;;;;11.75;6.80;;;15.70;95.60;;;;;;5006726;28;20142;-71
2022/04/22 11:53:20;;;;;;;9.20;6.35;;;15.70;95.40;;;;;;5005596;28;20022;-71
2022/04/22 11:55:48;;;;;;;11.68;5.65;;;15.80;95.10;;;;;;5006264;28;20046;-72
2022/04/22 11:58:23;;;;;;;12.00;4.75;;;15.80;96.10;;;;;;4994451;28;20093;-71
2022/04/22 12:06:20;;;;;;;7.72;4.65;;;15.60;95.40;;;;;;5005514;28;20056;-71
2022/04/22 12:09:02;;;;;;;7.43;4.05;;;15.70;95.30;;;;;;5004277;28;20030;-71
2022/04/22 12:11:28;;;;;;;7.75;4.80;;;15.70;95.40;;;;;;5002567;28;20042;-71
2022/04/22 12:13:55;;;;;;;10.27;5.68;;;15.60;95.50;;;;;;5004835;28;20033;-71
2022/04/22 12:16:26;;;;;;;7.90;5.60;;;15.40;96.00;;;;;;5005010;28;20088;-71
2022/04/22 12:18:56;;;;;;;15.32;10.52;;;15.40;96.40;;;;;;4999637;28;20061;-71
2022/04/22 12:21:24;;;;;;;9.15;5.63;;;15.20;96.70;;;;;;4996131;28;20125;-71
2022/04/22 12:23:51;;;;;;;12.40;6.65;;;15.50;96.60;;;;;;5006004;28;20048;-70
2022/04/22 12:26:22;;;;;;;6.15;4.18;;;15.40;96.20;;;;;;5005740;28;20038;-71
2022/04/22 12:29:01;;;;;;;7.40;4.43;;;15.20;96.40;;;;;;5002587;28;20026;-70
2022/04/22 12:31:29;;;;;;;34.03;26.30;;;15.40;96.50;;;;;;5000401;28;20038;-70
2022/04/22 12:34:06;;;;;;;11.95;7.30;;;15.50;96.30;;;;;;5000416;28;20065;-70
2022/04/22 12:36:36;;;;;;;11.65;7.68;;;15.40;96.20;;;;;;5002711;28;20038;-70
2022/04/22 12:39:04;;;;;;;9.43;6.00;;;15.10;96.60;;;;;;4997392;28;20054;-71
2022/04/22 12:41:46;;;;;;;6.00;3.97;;;15.40;97.10;;;;;;4981806;28;20037;-70
2022/04/22 12:44:13;;;;;;;5.70;3.22;;;15.80;96.20;;;;;;4977143;28;20029;-71
2022/04/22 12:52:23;;;;;;;4.50;2.90;;;15.80;96.00;;;;;;5002405;28;20511;-71
2022/04/22 12:54:50;;;;;;;5.03;2.15;;;15.80;93.60;;;;;;5002547;28;20092;-70
2022/04/22 12:57:23;;;;;;;5.70;2.88;;;15.90;94.20;;;;;;4994414;28;20473;-71
2022/04/22 12:59:58;;;;;;;6.60;2.30;;;15.70;94.60;;;;;;5006696;28;20092;-71
2022/04/22 13:02:33;;;;;;;6.60;2.13;;;15.70;94.50;;;;;;5006607;28;20121;-71
2022/04/22 13:05:04;;;;;;;3.67;1.63;;;15.60;94.50;;;;;;5006776;28;20041;-71
2022/04/22 13:07:47;;;;;;;4.00;2.17;;;15.40;94.60;;;;;;5004353;28;20042;-71
2022/04/22 13:10:13;;;;;;;4.05;1.45;;;15.20;94.70;;;;;;5006611;28;20050;-71
2022/04/22 13:12:41;;;;;;;3.10;1.50;;;15.20;95.00;;;;;;5004909;28;20045;-71
2022/04/22 13:15:08;;;;;;;3.13;1.48;;;15.20;95.30;;;;;;5006589;28;20038;-71
2022/04/22 13:17:39;;;;;;;2.83;1.55;;;15.10;95.80;;;;;;4998650;28;20041;-71
2022/04/22 13:20:06;;;;;;;3.90;1.67;;;15.00;95.90;;;;;;5001064;28;20420;-71
2022/04/22 13:22:33;;;;;;;3.60;1.63;;;15.00;96.50;;;;;;5003797;28;20042;-71
2022/04/22 13:24:58;;;;;;;3.58;1.50;;;15.00;96.00;;;;;;5005922;28;20041;-71
2022/04/22 13:27:24;;;;;;;4.35;2.05;;;14.90;96.60;;;;;;4999406;28;20046;-71
2022/04/22 13:29:50;;;;;;;3.10;1.73;;;15.00;97.10;;;;;;4994010;28;20134;-71
2022/04/22 13:32:15;;;;;;;5.35;1.92;;;14.90;96.80;;;;;;5005375;28;20030;-71
2022/04/22 13:34:41;;;;;;;4.18;2.17;;;14.80;97.70;;;;;;4999339;28;20048;-71
2022/04/22 13:37:07;;;;;;;3.70;1.90;;;14.90;98.20;;;;;;5009524;28;20034;-71
2022/04/22 13:39:33;;;;;;;4.00;2.30;;;14.80;98.10;;;;;;5009391;28;20093;-71
2022/04/22 13:41:59;;;;;;;4.20;2.00;;;14.80;98.10;;;;;;5007610;28;20034;-71
2022/04/22 13:52:42;;;;;;;3.60;1.90;;;14.40;98.40;;;;;;5008071;28;20164;-71
2022/04/22 13:55:09;;;;;;;2.92;1.40;;;14.40;99.00;;;;;;5001134;28;20152;-71
2022/04/22 13:57:35;;;;;;;4.25;1.88;;;14.40;98.90;;;;;;5003751;28;20038;-71
2022/04/22 14:00:01;;;;;;;2.78;1.60;;;14.50;99.50;;;;;;5007569;28;20033;-71
2022/04/22 14:02:27;;;;;;;3.72;1.30;;;14.30;99.10;;;;;;5005116;28;20069;-71